Kilmaurs, United Kingdom
Current Conditions -  °F | °C
As of 7:50 PM on Tuesday 21 Oct 2014 (Local Time) from EGPK Reporting Station
Few Clouds Few Clouds  
Wind Chill:   Ceiling: Unl
Heat Index:   Visibility: 6mi
Dew Point:   Wind: 36mph
Humidity: 66%   Direction: 290°WNW
Pressure: 29.91"   Gusts: 49mph
Location:  55.64°N, 4.53°W
Report Text: EGPK 211850Z 29031G43KT 9999 FEW012 FEW020CB 09/03 Q1013
Loading
Personal Weather Stations






























Interactive Weather Map
Tropical Storm Tracking
New forecast layout! Learn more

10-Day Weather Forecast

Advertisements
Track Severe Weather on mobile